sensor_id;sensor_type;location;lat;lon;timestamp;temperature;humidity
21928;DHT22;11128;51.096;17.190;2023-12-07T00:04:34;-0.30;1.00
21928;DHT22;11128;51.096;17.190;2023-12-07T00:09:36;-0.40;99.90
21928;DHT22;11128;51.096;17.190;2023-12-07T00:14:37;-0.30;99.90
21928;DHT22;11128;51.096;17.190;2023-12-07T00:19:39;-0.30;1.00
21928;DHT22;11128;51.096;17.190;2023-12-07T00:24:41;-0.30;99.90
21928;DHT22;11128;51.096;17.190;2023-12-07T00:29:42;-0.20;99.90
21928;DHT22;11128;51.096;17.190;2023-12-07T00:34:44;-0.30;99.90
21928;DHT22;11128;51.096;17.190;2023-12-07T00:39:45;-0.40;99.90
21928;DHT22;11128;51.096;17.190;2023-12-07T00:44:47;-0.40;99.90
21928;DHT22;11128;51.096;17.190;2023-12-07T00:49:48;-0.40;99.90
21928;DHT22;11128;51.096;17.190;2023-12-07T00:54:50;-0.40;1.00
21928;DHT22;11128;51.096;17.190;2023-12-07T00:59:51;-0.40;1.00
21928;DHT22;11128;51.096;17.190;2023-12-07T01:04:53;-0.40;99.90
21928;DHT22;11128;51.096;17.190;2023-12-07T01:09:54;0.20;99.90
21928;DHT22;11128;51.096;17.190;2023-12-07T01:14:56;-0.20;99.90
21928;DHT22;11128;51.096;17.190;2023-12-07T01:19:57;-0.10;99.90
21928;DHT22;11128;51.096;17.190;2023-12-07T01:24:59;0.20;99.90
21928;DHT22;11128;51.096;17.190;2023-12-07T01:30:00;-0.30;99.90
21928;DHT22;11128;51.096;17.190;2023-12-07T01:35:01;-0.40;99.90
21928;DHT22;11128;51.096;17.190;2023-12-07T01:40:04;-0.50;1.00
21928;DHT22;11128;51.096;17.190;2023-12-07T01:45:11;-0.40;1.00
21928;DHT22;11128;51.096;17.190;2023-12-07T01:50:13;-0.30;1.00
21928;DHT22;11128;51.096;17.190;2023-12-07T01:55:18;-0.30;1.00
21928;DHT22;11128;51.096;17.190;2023-12-07T02:00:20;-0.50;1.00
21928;DHT22;11128;51.096;17.190;2023-12-07T02:05:22;-0.50;1.00
21928;DHT22;11128;51.096;17.190;2023-12-07T02:10:24;-0.50;1.00
21928;DHT22;11128;51.096;17.190;2023-12-07T02:15:26;-0.50;1.00
21928;DHT22;11128;51.096;17.190;2023-12-07T02:20:39;-0.50;1.00
21928;DHT22;11128;51.096;17.190;2023-12-07T02:26:03;-0.50;1.00
21928;DHT22;11128;51.096;17.190;2023-12-07T02:31:05;-0.50;1.00
21928;DHT22;11128;51.096;17.190;2023-12-07T02:36:10;-0.50;1.00
21928;DHT22;11128;51.096;17.190;2023-12-07T02:41:13;-0.50;1.00
21928;DHT22;11128;51.096;17.190;2023-12-07T02:46:16;-0.50;1.00
21928;DHT22;11128;51.096;17.190;2023-12-07T02:51:17;-0.50;1.00
21928;DHT22;11128;51.096;17.190;2023-12-07T02:56:18;-0.50;1.00
21928;DHT22;11128;51.096;17.190;2023-12-07T03:01:20;-0.50;1.00
21928;DHT22;11128;51.096;17.190;2023-12-07T03:06:21;-0.50;99.90
21928;DHT22;11128;51.096;17.190;2023-12-07T03:11:24;-0.50;99.90
21928;DHT22;11128;51.096;17.190;2023-12-07T03:16:25;-0.40;99.90
21928;DHT22;11128;51.096;17.190;2023-12-07T03:21:26;0.00;99.90
21928;DHT22;11128;51.096;17.190;2023-12-07T03:26:28;-0.50;99.90
21928;DHT22;11128;51.096;17.190;2023-12-07T03:31:30;-0.50;99.90
21928;DHT22;11128;51.096;17.190;2023-12-07T03:36:31;-0.50;99.90
21928;DHT22;11128;51.096;17.190;2023-12-07T03:41:33;-0.50;1.00
21928;DHT22;11128;51.096;17.190;2023-12-07T03:46:34;-0.50;99.90
21928;DHT22;11128;51.096;17.190;2023-12-07T03:51:37;-0.50;1.00
21928;DHT22;11128;51.096;17.190;2023-12-07T04:01:45;-0.80;99.90
21928;DHT22;11128;51.096;17.190;2023-12-07T04:06:47;-0.50;1.00
21928;DHT22;11128;51.096;17.190;2023-12-07T04:11:49;-0.50;1.00
21928;DHT22;11128;51.096;17.190;2023-12-07T04:16:50;-0.50;1.00
21928;DHT22;11128;51.096;17.190;2023-12-07T04:21:55;-0.50;1.00
21928;DHT22;11128;51.096;17.190;2023-12-07T04:26:56;-0.50;1.00
21928;DHT22;11128;51.096;17.190;2023-12-07T04:31:58;-0.50;1.00
21928;DHT22;11128;51.096;17.190;2023-12-07T04:36:59;-0.20;1.00
21928;DHT22;11128;51.096;17.190;2023-12-07T04:42:01;-0.50;1.00
21928;DHT22;11128;51.096;17.190;2023-12-07T04:47:03;-0.50;99.90
21928;DHT22;11128;51.096;17.190;2023-12-07T04:52:04;-0.50;1.00
21928;DHT22;11128;51.096;17.190;2023-12-07T04:57:06;-0.50;1.00
21928;DHT22;11128;51.096;17.190;2023-12-07T05:02:07;-0.50;1.00
21928;DHT22;11128;51.096;17.190;2023-12-07T05:07:09;-0.20;1.00
21928;DHT22;11128;51.096;17.190;2023-12-07T05:12:11;-0.50;1.00
21928;DHT22;11128;51.096;17.190;2023-12-07T05:17:12;-0.50;1.00
21928;DHT22;11128;51.096;17.190;2023-12-07T05:22:14;-0.50;1.00
21928;DHT22;11128;51.096;17.190;2023-12-07T05:27:15;0.00;1.00
21928;DHT22;11128;51.096;17.190;2023-12-07T05:32:17;-0.30;1.00
21928;DHT22;11128;51.096;17.190;2023-12-07T05:37:19;-0.50;1.00
21928;DHT22;11128;51.096;17.190;2023-12-07T05:42:20;-0.50;99.90
21928;DHT22;11128;51.096;17.190;2023-12-07T05:47:21;-0.10;99.90
21928;DHT22;11128;51.096;17.190;2023-12-07T05:52:25;0.00;71.80
21928;DHT22;11128;51.096;17.190;2023-12-07T05:57:26;-0.50;1.00
21928;DHT22;11128;51.096;17.190;2023-12-07T06:02:27;-0.50;1.00
21928;DHT22;11128;51.096;17.190;2023-12-07T06:07:29;-0.50;1.00
21928;DHT22;11128;51.096;17.190;2023-12-07T06:12:31;-0.50;1.00
21928;DHT22;11128;51.096;17.190;2023-12-07T06:17:33;-0.50;32.30
21928;DHT22;11128;51.096;17.190;2023-12-07T06:22:35;-0.40;99.90
21928;DHT22;11128;51.096;17.190;2023-12-07T06:27:37;-0.40;1.00
21928;DHT22;11128;51.096;17.190;2023-12-07T06:32:38;0.00;1.00
21928;DHT22;11128;51.096;17.190;2023-12-07T06:37:40;-0.30;99.90
21928;DHT22;11128;51.096;17.190;2023-12-07T06:42:42;-0.40;99.90
21928;DHT22;11128;51.096;17.190;2023-12-07T06:47:44;-0.40;99.90
21928;DHT22;11128;51.096;17.190;2023-12-07T06:52:45;0.10;1.00
21928;DHT22;11128;51.096;17.190;2023-12-07T06:57:47;-0.40;99.90
21928;DHT22;11128;51.096;17.190;2023-12-07T07:02:48;-0.30;99.90
21928;DHT22;11128;51.096;17.190;2023-12-07T07:07:50;-0.40;1.00
21928;DHT22;11128;51.096;17.190;2023-12-07T07:12:52;-0.30;1.00
21928;DHT22;11128;51.096;17.190;2023-12-07T07:17:54;-0.30;1.00
21928;DHT22;11128;51.096;17.190;2023-12-07T07:22:55;-0.30;1.00
21928;DHT22;11128;51.096;17.190;2023-12-07T07:27:57;-0.30;1.00
21928;DHT22;11128;51.096;17.190;2023-12-07T07:32:59;-0.30;1.00
21928;DHT22;11128;51.096;17.190;2023-12-07T07:38:00;-0.30;1.00
21928;DHT22;11128;51.096;17.190;2023-12-07T07:43:02;-0.30;1.00
21928;DHT22;11128;51.096;17.190;2023-12-07T07:48:03;-0.40;1.00
21928;DHT22;11128;51.096;17.190;2023-12-07T07:53:05;-0.30;99.90
21928;DHT22;11128;51.096;17.190;2023-12-07T07:58:06;0.30;99.90
21928;DHT22;11128;51.096;17.190;2023-12-07T08:03:08;-0.30;1.00
21928;DHT22;11128;51.096;17.190;2023-12-07T08:08:10;0.70;1.00
21928;DHT22;11128;51.096;17.190;2023-12-07T08:13:12;-0.30;1.00
21928;DHT22;11128;51.096;17.190;2023-12-07T08:18:13;-0.30;78.90
21928;DHT22;11128;51.096;17.190;2023-12-07T08:23:15;-0.30;99.90
21928;DHT22;11128;51.096;17.190;2023-12-07T08:28:17;-0.30;99.90
21928;DHT22;11128;51.096;17.190;2023-12-07T08:33:19;-0.20;99.90
21928;DHT22;11128;51.096;17.190;2023-12-07T08:38:21;-0.20;99.90
21928;DHT22;11128;51.096;17.190;2023-12-07T08:43:24;-0.20;99.90
21928;DHT22;11128;51.096;17.190;2023-12-07T08:48:26;0.30;1.00
21928;DHT22;11128;51.096;17.190;2023-12-07T08:53:27;-0.10;1.00
21928;DHT22;11128;51.096;17.190;2023-12-07T08:58:29;-0.10;99.90
21928;DHT22;11128;51.096;17.190;2023-12-07T09:03:31;0.10;99.90
21928;DHT22;11128;51.096;17.190;2023-12-07T09:08:32;-0.10;99.90
21928;DHT22;11128;51.096;17.190;2023-12-07T09:13:35;0.00;1.00
21928;DHT22;11128;51.096;17.190;2023-12-07T09:18:36;0.00;1.00
21928;DHT22;11128;51.096;17.190;2023-12-07T09:23:38;0.00;99.90
21928;DHT22;11128;51.096;17.190;2023-12-07T09:28:40;0.00;99.90
21928;DHT22;11128;51.096;17.190;2023-12-07T09:33:41;0.10;1.00
21928;DHT22;11128;51.096;17.190;2023-12-07T09:38:43;0.10;1.00
21928;DHT22;11128;51.096;17.190;2023-12-07T09:43:45;0.20;99.90
21928;DHT22;11128;51.096;17.190;2023-12-07T09:48:49;0.20;1.00
21928;DHT22;11128;51.096;17.190;2023-12-07T09:53:52;0.20;99.90
21928;DHT22;11128;51.096;17.190;2023-12-07T09:58:54;0.30;99.90
21928;DHT22;11128;51.096;17.190;2023-12-07T10:04:15;0.20;99.90
21928;DHT22;11128;51.096;17.190;2023-12-07T10:09:17;0.30;99.90
21928;DHT22;11128;51.096;17.190;2023-12-07T10:14:28;0.30;1.00
21928;DHT22;11128;51.096;17.190;2023-12-07T10:19:29;0.30;1.00
21928;DHT22;11128;51.096;17.190;2023-12-07T10:24:31;0.30;1.00
21928;DHT22;11128;51.096;17.190;2023-12-07T10:29:35;0.40;1.00
21928;DHT22;11128;51.096;17.190;2023-12-07T10:34:37;0.40;99.90
21928;DHT22;11128;51.096;17.190;2023-12-07T10:39:39;0.40;99.90
21928;DHT22;11128;51.096;17.190;2023-12-07T10:44:42;0.40;99.90
21928;DHT22;11128;51.096;17.190;2023-12-07T10:49:48;0.50;99.90
21928;DHT22;11128;51.096;17.190;2023-12-07T10:55:10;0.60;93.40
21928;DHT22;11128;51.096;17.190;2023-12-07T11:00:15;0.60;1.00
21928;DHT22;11128;51.096;17.190;2023-12-07T11:05:16;0.60;1.00
21928;DHT22;11128;51.096;17.190;2023-12-07T11:10:24;0.70;1.00
21928;DHT22;11128;51.096;17.190;2023-12-07T11:15:27;0.60;1.00
21928;DHT22;11128;51.096;17.190;2023-12-07T11:25:47;0.80;71.90
21928;DHT22;11128;51.096;17.190;2023-12-07T11:30:50;0.90;1.00
21928;DHT22;11128;51.096;17.190;2023-12-07T11:36:08;0.80;1.00
21928;DHT22;11128;51.096;17.190;2023-12-07T11:41:11;0.90;1.00
21928;DHT22;11128;51.096;17.190;2023-12-07T11:46:12;1.00;1.00
21928;DHT22;11128;51.096;17.190;2023-12-07T11:51:16;1.00;1.00
21928;DHT22;11128;51.096;17.190;2023-12-07T11:56:17;1.00;1.00
21928;DHT22;11128;51.096;17.190;2023-12-07T12:01:24;0.90;99.90
21928;DHT22;11128;51.096;17.190;2023-12-07T12:06:26;1.00;83.30
21928;DHT22;11128;51.096;17.190;2023-12-07T12:11:28;1.00;99.90
21928;DHT22;11128;51.096;17.190;2023-12-07T12:16:31;1.00;1.00
21928;DHT22;11128;51.096;17.190;2023-12-07T12:21:38;1.10;1.00
21928;DHT22;11128;51.096;17.190;2023-12-07T12:26:44;1.20;1.00
21928;DHT22;11128;51.096;17.190;2023-12-07T12:31:45;1.10;1.00
21928;DHT22;11128;51.096;17.190;2023-12-07T12:36:47;1.00;37.80
21928;DHT22;11128;51.096;17.190;2023-12-07T12:41:54;1.10;1.00
21928;DHT22;11128;51.096;17.190;2023-12-07T12:46:56;1.10;99.90
21928;DHT22;11128;51.096;17.190;2023-12-07T12:51:57;1.10;99.90
21928;DHT22;11128;51.096;17.190;2023-12-07T12:56:59;1.10;1.00
21928;DHT22;11128;51.096;17.190;2023-12-07T13:02:01;1.10;99.90
21928;DHT22;11128;51.096;17.190;2023-12-07T13:07:05;1.10;1.00
21928;DHT22;11128;51.096;17.190;2023-12-07T13:12:07;1.10;1.00
21928;DHT22;11128;51.096;17.190;2023-12-07T13:17:09;1.10;1.00
21928;DHT22;11128;51.096;17.190;2023-12-07T13:22:10;1.10;1.00
21928;DHT22;11128;51.096;17.190;2023-12-07T13:27:12;1.10;1.00
21928;DHT22;11128;51.096;17.190;2023-12-07T13:32:14;1.20;1.00
21928;DHT22;11128;51.096;17.190;2023-12-07T13:37:16;1.20;13.20
21928;DHT22;11128;51.096;17.190;2023-12-07T13:42:17;1.20;1.00
21928;DHT22;11128;51.096;17.190;2023-12-07T13:47:19;1.20;1.00
21928;DHT22;11128;51.096;17.190;2023-12-07T13:52:21;1.20;1.00
21928;DHT22;11128;51.096;17.190;2023-12-07T13:57:23;1.20;1.00
21928;DHT22;11128;51.096;17.190;2023-12-07T14:02:27;1.20;1.00
21928;DHT22;11128;51.096;17.190;2023-12-07T14:07:30;1.20;1.00
21928;DHT22;11128;51.096;17.190;2023-12-07T14:12:31;1.20;99.90
21928;DHT22;11128;51.096;17.190;2023-12-07T14:17:34;1.20;1.00
21928;DHT22;11128;51.096;17.190;2023-12-07T14:22:38;1.20;1.00
21928;DHT22;11128;51.096;17.190;2023-12-07T14:27:40;1.20;1.00
21928;DHT22;11128;51.096;17.190;2023-12-07T14:32:43;1.20;1.00
21928;DHT22;11128;51.096;17.190;2023-12-07T14:37:52;1.20;99.90
21928;DHT22;11128;51.096;17.190;2023-12-07T14:42:57;1.10;73.40
21928;DHT22;11128;51.096;17.190;2023-12-07T14:47:59;1.20;99.90
21928;DHT22;11128;51.096;17.190;2023-12-07T14:53:00;1.10;1.00
21928;DHT22;11128;51.096;17.190;2023-12-07T14:58:02;1.20;1.00
21928;DHT22;11128;51.096;17.190;2023-12-07T15:03:03;1.10;1.00
21928;DHT22;11128;51.096;17.190;2023-12-07T15:08:05;1.10;99.90
21928;DHT22;11128;51.096;17.190;2023-12-07T15:13:07;1.10;99.90
21928;DHT22;11128;51.096;17.190;2023-12-07T15:18:09;1.10;1.00
21928;DHT22;11128;51.096;17.190;2023-12-07T15:23:10;1.10;1.00
21928;DHT22;11128;51.096;17.190;2023-12-07T15:28:12;1.10;1.00
21928;DHT22;11128;51.096;17.190;2023-12-07T15:33:15;1.10;1.00
21928;DHT22;11128;51.096;17.190;2023-12-07T15:38:17;1.10;1.00
21928;DHT22;11128;51.096;17.190;2023-12-07T15:43:18;1.10;1.00
21928;DHT22;11128;51.096;17.190;2023-12-07T15:48:20;1.10;1.00
21928;DHT22;11128;51.096;17.190;2023-12-07T15:53:21;1.00;99.90
21928;DHT22;11128;51.096;17.190;2023-12-07T15:58:23;1.00;99.90
21928;DHT22;11128;51.096;17.190;2023-12-07T16:03:24;0.80;99.90
21928;DHT22;11128;51.096;17.190;2023-12-07T16:08:27;1.00;99.90
21928;DHT22;11128;51.096;17.190;2023-12-07T16:13:29;3.40;1.00
21928;DHT22;11128;51.096;17.190;2023-12-07T16:18:30;1.00;1.00
21928;DHT22;11128;51.096;17.190;2023-12-07T16:23:32;1.00;99.90
21928;DHT22;11128;51.096;17.190;2023-12-07T16:28:33;1.00;99.90
21928;DHT22;11128;51.096;17.190;2023-12-07T16:33:35;0.90;1.00
21928;DHT22;11128;51.096;17.190;2023-12-07T16:38:40;0.90;1.00
21928;DHT22;11128;51.096;17.190;2023-12-07T16:43:42;0.90;99.90
21928;DHT22;11128;51.096;17.190;2023-12-07T16:48:44;0.90;99.90
21928;DHT22;11128;51.096;17.190;2023-12-07T16:53:46;0.90;99.90
21928;DHT22;11128;51.096;17.190;2023-12-07T16:58:47;0.90;1.00
21928;DHT22;11128;51.096;17.190;2023-12-07T17:03:49;0.90;1.00
21928;DHT22;11128;51.096;17.190;2023-12-07T17:08:52;0.90;1.00
21928;DHT22;11128;51.096;17.190;2023-12-07T17:14:07;0.90;1.00
21928;DHT22;11128;51.096;17.190;2023-12-07T17:19:09;0.90;1.00
21928;DHT22;11128;51.096;17.190;2023-12-07T17:24:11;0.90;1.00
21928;DHT22;11128;51.096;17.190;2023-12-07T17:29:13;0.90;1.00
21928;DHT22;11128;51.096;17.190;2023-12-07T17:34:15;0.90;1.00
21928;DHT22;11128;51.096;17.190;2023-12-07T17:39:16;0.90;1.00
21928;DHT22;11128;51.096;17.190;2023-12-07T17:44:18;0.90;1.00
21928;DHT22;11128;51.096;17.190;2023-12-07T17:49:20;0.90;1.00
21928;DHT22;11128;51.096;17.190;2023-12-07T17:54:23;0.90;1.00
21928;DHT22;11128;51.096;17.190;2023-12-07T17:59:25;0.90;1.00
21928;DHT22;11128;51.096;17.190;2023-12-07T18:04:26;0.90;1.00
21928;DHT22;11128;51.096;17.190;2023-12-07T18:09:29;0.90;1.00
21928;DHT22;11128;51.096;17.190;2023-12-07T18:14:30;0.90;1.00
21928;DHT22;11128;51.096;17.190;2023-12-07T18:19:32;0.90;1.00
21928;DHT22;11128;51.096;17.190;2023-12-07T18:24:34;1.00;1.00
21928;DHT22;11128;51.096;17.190;2023-12-07T18:29:35;0.90;1.00
21928;DHT22;11128;51.096;17.190;2023-12-07T18:34:41;1.30;1.00
21928;DHT22;11128;51.096;17.190;2023-12-07T18:39:42;0.90;1.00
21928;DHT22;11128;51.096;17.190;2023-12-07T18:44:44;1.00;1.00
21928;DHT22;11128;51.096;17.190;2023-12-07T18:49:46;1.00;99.90
21928;DHT22;11128;51.096;17.190;2023-12-07T18:54:48;2.20;99.90
21928;DHT22;11128;51.096;17.190;2023-12-07T18:59:49;0.90;1.00
21928;DHT22;11128;51.096;17.190;2023-12-07T19:04:51;0.90;1.00
21928;DHT22;11128;51.096;17.190;2023-12-07T19:09:52;0.90;1.00
21928;DHT22;11128;51.096;17.190;2023-12-07T19:14:54;0.90;1.00
21928;DHT22;11128;51.096;17.190;2023-12-07T19:19:55;0.90;1.00
21928;DHT22;11128;51.096;17.190;2023-12-07T19:24:59;1.10;1.00
21928;DHT22;11128;51.096;17.190;2023-12-07T19:30:02;0.90;1.00
21928;DHT22;11128;51.096;17.190;2023-12-07T19:35:04;0.90;1.00
21928;DHT22;11128;51.096;17.190;2023-12-07T19:40:06;0.90;1.00
21928;DHT22;11128;51.096;17.190;2023-12-07T19:45:09;0.90;1.00
21928;DHT22;11128;51.096;17.190;2023-12-07T19:50:11;0.80;1.00
21928;DHT22;11128;51.096;17.190;2023-12-07T19:55:13;0.80;1.00
21928;DHT22;11128;51.096;17.190;2023-12-07T20:00:14;0.90;1.00
21928;DHT22;11128;51.096;17.190;2023-12-07T20:05:19;0.90;1.00
21928;DHT22;11128;51.096;17.190;2023-12-07T20:10:21;0.80;1.00
21928;DHT22;11128;51.096;17.190;2023-12-07T20:15:23;0.80;1.00
21928;DHT22;11128;51.096;17.190;2023-12-07T20:20:24;0.90;1.00
21928;DHT22;11128;51.096;17.190;2023-12-07T20:25:26;0.90;1.00
21928;DHT22;11128;51.096;17.190;2023-12-07T20:30:27;1.10;1.00
21928;DHT22;11128;51.096;17.190;2023-12-07T20:35:29;0.90;1.00
21928;DHT22;11128;51.096;17.190;2023-12-07T20:40:31;0.80;1.00
21928;DHT22;11128;51.096;17.190;2023-12-07T20:45:33;0.80;1.00
21928;DHT22;11128;51.096;17.190;2023-12-07T20:50:34;0.80;1.00
21928;DHT22;11128;51.096;17.190;2023-12-07T20:55:36;0.90;1.00
21928;DHT22;11128;51.096;17.190;2023-12-07T21:00:38;0.80;1.00
21928;DHT22;11128;51.096;17.190;2023-12-07T21:05:39;0.80;1.00
21928;DHT22;11128;51.096;17.190;2023-12-07T21:10:41;0.80;1.00
21928;DHT22;11128;51.096;17.190;2023-12-07T21:15:42;0.80;1.00
21928;DHT22;11128;51.096;17.190;2023-12-07T21:20:44;0.80;1.00
21928;DHT22;11128;51.096;17.190;2023-12-07T21:25:46;0.80;1.00
21928;DHT22;11128;51.096;17.190;2023-12-07T21:30:48;0.80;1.00
21928;DHT22;11128;51.096;17.190;2023-12-07T21:35:49;0.80;1.00
21928;DHT22;11128;51.096;17.190;2023-12-07T21:40:50;0.80;1.00
21928;DHT22;11128;51.096;17.190;2023-12-07T21:45:52;0.70;1.00
21928;DHT22;11128;51.096;17.190;2023-12-07T21:50:54;0.70;1.00
21928;DHT22;11128;51.096;17.190;2023-12-07T21:55:55;0.70;1.00
21928;DHT22;11128;51.096;17.190;2023-12-07T22:00:58;0.70;1.00
21928;DHT22;11128;51.096;17.190;2023-12-07T22:06:00;0.60;1.00
21928;DHT22;11128;51.096;17.190;2023-12-07T22:11:02;0.70;99.90
21928;DHT22;11128;51.096;17.190;2023-12-07T22:16:04;0.60;99.90
21928;DHT22;11128;51.096;17.190;2023-12-07T22:21:06;0.60;99.90
21928;DHT22;11128;51.096;17.190;2023-12-07T22:26:08;0.60;99.90
21928;DHT22;11128;51.096;17.190;2023-12-07T22:31:10;0.60;99.90
21928;DHT22;11128;51.096;17.190;2023-12-07T22:36:14;0.60;99.90
21928;DHT22;11128;51.096;17.190;2023-12-07T22:41:16;0.70;99.90
21928;DHT22;11128;51.096;17.190;2023-12-07T22:46:17;0.60;99.90
21928;DHT22;11128;51.096;17.190;2023-12-07T22:51:19;0.60;99.90
21928;DHT22;11128;51.096;17.190;2023-12-07T22:56:20;0.50;99.90
21928;DHT22;11128;51.096;17.190;2023-12-07T23:01:22;0.60;99.90
21928;DHT22;11128;51.096;17.190;2023-12-07T23:06:23;0.50;99.90
21928;DHT22;11128;51.096;17.190;2023-12-07T23:11:25;0.60;99.90
21928;DHT22;11128;51.096;17.190;2023-12-07T23:16:26;0.50;99.90
21928;DHT22;11128;51.096;17.190;2023-12-07T23:21:32;0.70;99.90
21928;DHT22;11128;51.096;17.190;2023-12-07T23:26:34;0.60;99.90
21928;DHT22;11128;51.096;17.190;2023-12-07T23:31:36;0.50;99.90
21928;DHT22;11128;51.096;17.190;2023-12-07T23:36:37;0.60;99.90
21928;DHT22;11128;51.096;17.190;2023-12-07T23:41:39;0.60;99.90
21928;DHT22;11128;51.096;17.190;2023-12-07T23:46:41;0.60;99.90
21928;DHT22;11128;51.096;17.190;2023-12-07T23:51:43;0.60;90.50
21928;DHT22;11128;51.096;17.190;2023-12-07T23:56:45;0.50;1.00
